Mount Hood Parkdale, Oregon
Current Conditions -  °F | °C
As of 6:59 AM on Saturday 20 Dec 2014 (Local Time) from K4S2 Reporting Station
Moderate Rain Moderate Rain  
Wind Chill: 39°   Ceiling: 1700
Heat Index: 39°   Visibility: 1.7mi
Dew Point: 39°   Wind: 0mph
Humidity: 100%   Direction: NA
Pressure: 29.81"   Gusts: NA
Location:  45.52°N, 121.59°W
Report Text: K4S2 201459Z AUTO 00000KT 1 3/4SM RA SCT006 OVC017 04/04 A2981 RMK AO2 VIS 1 1/4V2 1/2 P0006 SLP109 T00100020
Loading
Personal Weather Stations






























Interactive Weather Map New forecast layout! Learn more

10-Day Weather Forecast

Advertisements
Track Severe Weather on mobile